Time;durP1;ratioP1;P1;durP2;ratioP2;P2;SDS_P1;SDS_P2;PMS_P1;PMS_P2;Temp;Humidity;BMP_temperature;BMP_pressure;BME280_temperature;BME280_humidity;BME280_pressure;Samples;Min_cycle;Max_cycle;Signal;HPM_P1;HPM_P2
2023/07/05 00:01:37;;;;;;;7.38;5.07;;;16.80;99.90;;;;;;5056376;28;20032;-73
2023/07/05 00:04:03;;;;;;;7.90;5.63;;;16.80;99.90;;;;;;5056996;28;20032;-73
2023/07/05 00:06:28;;;;;;;9.07;5.53;;;16.80;99.90;;;;;;5038656;28;20025;-73
2023/07/05 00:08:54;;;;;;;9.75;5.47;;;16.80;99.90;;;;;;5056874;28;20040;-73
2023/07/05 00:11:20;;;;;;;7.22;5.68;;;16.70;99.90;;;;;;5056824;28;20031;-73
2023/07/05 00:13:46;;;;;;;9.63;5.18;;;16.70;99.90;;;;;;5038554;28;20075;-73
2023/07/05 00:16:12;;;;;;;12.88;6.55;;;16.60;99.90;;;;;;5039340;28;20052;-74
2023/07/05 00:18:39;;;;;;;10.77;5.82;;;16.60;99.90;;;;;;5039060;28;20028;-73
2023/07/05 00:21:07;;;;;;;10.73;6.32;;;16.60;99.90;;;;;;5056739;28;20431;-73
2023/07/05 00:23:35;;;;;;;14.60;6.95;;;16.60;99.90;;;;;;5056018;28;20029;-73
2023/07/05 00:26:03;;;;;;;9.88;5.63;;;16.50;99.90;;;;;;5038288;28;20033;-73
2023/07/05 00:28:28;;;;;;;11.98;5.88;;;16.50;99.90;;;;;;5055933;28;20506;-73
2023/07/05 00:30:54;;;;;;;7.85;5.57;;;16.50;99.90;;;;;;5038260;28;20036;-73
2023/07/05 00:33:20;;;;;;;12.63;6.20;;;16.40;99.90;;;;;;5056190;28;20021;-73
2023/07/05 00:35:50;;;;;;;9.60;6.20;;;16.40;99.90;;;;;;5056123;28;20458;-73
2023/07/05 00:38:16;;;;;;;10.98;6.00;;;16.40;99.90;;;;;;5055811;28;20393;-73
2023/07/05 00:40:42;;;;;;;9.73;6.55;;;16.30;99.90;;;;;;5056005;28;20520;-73
2023/07/05 00:43:09;;;;;;;13.57;6.63;;;16.30;99.90;;;;;;5055953;28;20033;-73
2023/07/05 00:45:56;;;;;;;13.73;6.70;;;16.30;99.90;;;;;;5055808;28;20044;-73
2023/07/05 00:48:32;;;;;;;8.18;5.82;;;16.30;99.90;;;;;;5037981;28;20419;-73
2023/07/05 00:51:00;;;;;;;10.48;6.25;;;16.20;99.90;;;;;;5055432;28;20059;-73
2023/07/05 00:53:28;;;;;;;11.45;6.18;;;16.20;99.90;;;;;;5055811;28;20056;-73
2023/07/05 00:56:01;;;;;;;13.05;6.18;;;16.20;99.90;;;;;;5055485;28;20457;-74
2023/07/05 00:58:27;;;;;;;10.73;6.10;;;16.10;99.90;;;;;;5055381;28;20032;-73
2023/07/05 01:00:53;;;;;;;11.32;6.28;;;16.10;99.90;;;;;;5055649;28;20033;-73
2023/07/05 01:03:21;;;;;;;10.45;6.47;;;16.10;99.90;;;;;;5055330;28;20032;-73
2023/07/05 01:05:54;;;;;;;11.35;6.13;;;16.10;99.90;;;;;;5055479;28;20033;-74
2023/07/05 01:08:20;;;;;;;8.35;6.38;;;16.00;99.90;;;;;;5055211;28;20388;-73
2023/07/05 01:10:54;;;;;;;9.60;6.55;;;16.00;99.90;;;;;;5055459;28;20036;-73
2023/07/05 01:13:36;;;;;;;11.60;6.93;;;16.00;99.90;;;;;;5055442;28;20025;-73
2023/07/05 01:16:12;;;;;;;11.75;6.30;;;16.00;99.90;;;;;;5055177;28;20477;-73
2023/07/05 01:18:47;;;;;;;8.50;6.35;;;15.90;99.90;;;;;;5055706;28;20025;-73
2023/07/05 01:21:36;;;;;;;11.18;6.57;;;15.90;99.90;;;;;;5037551;28;20473;-73
2023/07/05 01:24:20;;;;;;;8.13;5.88;;;15.90;99.90;;;;;;5037556;28;20025;-73
2023/07/05 01:27:05;;;;;;;11.00;5.97;;;15.80;99.90;;;;;;5055072;28;20116;-74
2023/07/05 01:29:39;;;;;;;10.13;6.22;;;15.80;99.90;;;;;;5037545;28;20032;-73
2023/07/05 01:32:25;;;;;;;10.30;5.93;;;15.80;99.90;;;;;;5055033;28;20101;-74
2023/07/05 01:34:58;;;;;;;12.23;6.65;;;15.70;99.90;;;;;;5036910;28;20036;-73
2023/07/05 01:37:41;;;;;;;8.70;6.05;;;15.70;99.90;;;;;;5037827;28;20060;-73
2023/07/05 01:40:34;;;;;;;9.82;6.15;;;15.70;99.90;;;;;;5036801;28;20045;-73
2023/07/05 01:43:06;;;;;;;9.00;6.28;;;15.70;99.90;;;;;;5054851;28;20050;-73
2023/07/05 01:45:44;;;;;;;8.80;6.03;;;15.70;99.90;;;;;;5036842;28;20132;-73
2023/07/05 01:48:22;;;;;;;10.02;5.78;;;15.60;99.90;;;;;;5054790;28;20032;-73
2023/07/05 01:50:54;;;;;;;8.10;5.97;;;15.60;99.90;;;;;;5054362;28;20049;-73
2023/07/05 01:53:37;;;;;;;11.85;7.25;;;15.50;99.90;;;;;;5036836;28;20059;-73
2023/07/05 01:56:13;;;;;;;10.02;5.60;;;15.60;99.90;;;;;;5054836;28;20477;-73
2023/07/05 01:58:45;;;;;;;9.77;6.28;;;15.50;99.90;;;;;;5037074;28;20029;-74
2023/07/05 02:01:14;;;;;;;10.57;5.78;;;15.50;99.90;;;;;;5036667;28;20067;-73
2023/07/05 02:03:41;;;;;;;8.60;6.25;;;15.50;99.90;;;;;;5054785;28;20035;-73
2023/07/05 02:06:08;;;;;;;8.20;5.90;;;15.50;99.90;;;;;;5054577;28;20076;-73
2023/07/05 02:08:42;;;;;;;10.55;5.93;;;15.40;99.90;;;;;;5036490;28;20465;-73
2023/07/05 02:11:08;;;;;;;8.70;5.68;;;15.40;99.90;;;;;;5053714;28;20021;-73
2023/07/05 02:13:33;;;;;;;12.20;6.53;;;15.40;99.90;;;;;;5036405;28;20036;-73
2023/07/05 02:15:59;;;;;;;7.57;6.28;;;15.40;99.90;;;;;;5054246;28;20033;-73
2023/07/05 02:18:29;;;;;;;12.40;6.38;;;15.40;99.90;;;;;;5054183;28;20029;-73
2023/07/05 02:20:55;;;;;;;8.55;6.32;;;15.40;99.90;;;;;;5036235;28;20568;-73
2023/07/05 02:23:21;;;;;;;8.45;5.95;;;15.30;99.90;;;;;;5054160;28;20029;-73
2023/07/05 02:25:47;;;;;;;9.05;5.90;;;15.30;99.90;;;;;;5036239;28;20033;-73
2023/07/05 02:28:13;;;;;;;10.10;5.88;;;15.30;99.90;;;;;;5036252;28;20029;-73
2023/07/05 02:30:39;;;;;;;11.23;6.15;;;15.20;99.90;;;;;;5054013;28;20029;-73
2023/07/05 02:33:05;;;;;;;9.70;6.22;;;15.20;99.90;;;;;;5053687;28;20385;-73
2023/07/05 02:35:40;;;;;;;12.27;5.85;;;15.20;99.90;;;;;;5053932;28;20039;-74
2023/07/05 02:38:06;;;;;;;8.90;6.53;;;15.20;99.90;;;;;;5054191;28;20020;-73
2023/07/05 02:40:32;;;;;;;12.98;6.38;;;15.10;99.90;;;;;;5053609;28;20029;-73
2023/07/05 02:42:59;;;;;;;10.52;6.38;;;15.10;99.90;;;;;;5036000;28;20052;-73
2023/07/05 02:45:28;;;;;;;11.45;6.43;;;15.10;99.90;;;;;;5035881;28;20079;-73
2023/07/05 02:47:54;;;;;;;10.55;6.78;;;15.00;99.90;;;;;;5053804;28;20056;-74
2023/07/05 02:50:20;;;;;;;11.00;5.95;;;15.00;99.90;;;;;;5046931;28;20087;-73
2023/07/05 02:52:46;;;;;;;10.15;6.63;;;15.00;99.90;;;;;;5072519;28;20029;-73
2023/07/05 02:55:11;;;;;;;10.02;5.55;;;15.00;99.90;;;;;;5073743;28;20031;-74
2023/07/05 02:57:37;;;;;;;8.00;5.53;;;14.90;99.90;;;;;;5072496;28;20028;-74
2023/07/05 03:00:07;;;;;;;11.35;6.65;;;14.90;99.90;;;;;;5073739;28;20457;-73
2023/07/05 03:02:33;;;;;;;10.60;6.40;;;14.90;99.90;;;;;;5072519;28;20020;-73
2023/07/05 03:05:09;;;;;;;10.45;5.57;;;14.90;99.90;;;;;;5072337;28;20028;-74
2023/07/05 03:07:35;;;;;;;8.80;5.85;;;14.90;99.90;;;;;;5073470;28;20477;-75
2023/07/05 03:10:01;;;;;;;11.60;6.18;;;14.90;99.90;;;;;;5073345;28;20098;-75
2023/07/05 03:12:26;;;;;;;11.70;6.07;;;14.90;99.90;;;;;;5073669;28;20457;-74
2023/07/05 03:14:52;;;;;;;11.32;6.90;;;14.90;99.90;;;;;;5073242;28;20028;-75
2023/07/05 03:17:18;;;;;;;10.00;6.00;;;14.90;99.90;;;;;;5073317;28;20093;-76
2023/07/05 03:19:44;;;;;;;11.52;5.78;;;14.90;99.90;;;;;;5073632;28;20021;-74
2023/07/05 03:22:09;;;;;;;8.45;5.63;;;14.90;99.90;;;;;;5075201;28;20074;-73
2023/07/05 03:24:35;;;;;;;8.05;5.78;;;14.90;99.90;;;;;;5076250;28;20025;-73
2023/07/05 03:27:01;;;;;;;9.77;6.10;;;14.90;99.90;;;;;;5077362;28;20496;-74
2023/07/05 03:29:26;;;;;;;9.48;6.07;;;14.90;99.90;;;;;;5077399;28;20032;-73
2023/07/05 03:31:52;;;;;;;9.98;6.07;;;15.00;99.90;;;;;;5076092;28;20031;-73
2023/07/05 03:34:18;;;;;;;8.93;6.07;;;15.00;99.90;;;;;;5077446;28;20134;-74
2023/07/05 03:36:43;;;;;;;9.75;6.72;;;15.00;99.90;;;;;;5077524;28;20417;-73
2023/07/05 03:39:09;;;;;;;9.27;6.45;;;15.00;99.90;;;;;;5077393;28;20071;-73
2023/07/05 03:41:35;;;;;;;14.95;7.82;;;15.00;99.90;;;;;;5077148;28;20021;-73
2023/07/05 03:44:01;;;;;;;11.65;6.47;;;15.10;99.90;;;;;;5075781;28;20037;-73
2023/07/05 03:46:27;;;;;;;14.48;6.32;;;15.10;99.90;;;;;;5076928;28;20029;-73
2023/07/05 03:48:53;;;;;;;14.00;6.55;;;15.10;99.90;;;;;;5076867;28;20099;-73
2023/07/05 03:51:22;;;;;;;12.80;6.28;;;15.20;99.90;;;;;;5062101;28;20055;-73
2023/07/05 03:53:52;;;;;;;11.48;5.90;;;15.20;99.90;;;;;;5038992;28;20036;-73
2023/07/05 03:56:19;;;;;;;7.25;5.45;;;15.30;99.90;;;;;;5056877;28;20041;-73
2023/07/05 03:58:44;;;;;;;9.45;5.65;;;15.40;99.90;;;;;;5056825;28;20036;-73
2023/07/05 04:01:17;;;;;;;11.93;5.60;;;15.50;99.90;;;;;;5022699;28;20118;-73
2023/07/05 04:03:45;;;;;;;9.02;5.53;;;15.60;99.90;;;;;;5039012;28;20484;-73
2023/07/05 04:06:11;;;;;;;10.18;5.50;;;15.70;99.90;;;;;;5056632;28;20055;-73
2023/07/05 04:08:39;;;;;;;7.97;5.43;;;15.80;99.90;;;;;;5056280;28;20033;-73
2023/07/05 04:11:05;;;;;;;12.35;6.35;;;16.00;99.90;;;;;;5056556;28;20021;-73
2023/07/05 04:13:31;;;;;;;14.13;5.22;;;16.10;99.90;;;;;;5056465;28;20051;-73
2023/07/05 04:15:59;;;;;;;7.40;5.07;;;16.30;99.90;;;;;;5038201;28;20457;-73
2023/07/05 04:18:26;;;;;;;7.90;5.00;;;16.50;99.90;;;;;;5056449;28;20017;-73
2023/07/05 04:20:51;;;;;;;7.85;4.78;;;16.60;99.90;;;;;;5056427;28;20025;-73
2023/07/05 04:23:17;;;;;;;9.98;5.50;;;16.80;99.90;;;;;;5056077;28;20096;-73
2023/07/05 04:25:42;;;;;;;7.18;4.95;;;16.90;99.90;;;;;;5056119;28;20025;-73
2023/07/05 04:28:08;;;;;;;7.22;4.80;;;17.10;99.90;;;;;;5056615;28;20429;-73
2023/07/05 04:30:34;;;;;;;6.60;4.35;;;17.20;99.90;;;;;;5055921;28;20025;-73
2023/07/05 04:32:59;;;;;;;9.02;4.65;;;17.30;99.90;;;;;;5037491;28;20377;-73
2023/07/05 04:35:25;;;;;;;9.13;4.80;;;17.40;99.90;;;;;;5056225;28;20373;-73
2023/07/05 04:37:50;;;;;;;8.02;4.47;;;17.50;99.90;;;;;;5038050;28;20029;-74
2023/07/05 04:40:17;;;;;;;8.95;4.80;;;17.50;99.90;;;;;;5055736;28;20021;-75
2023/07/05 04:42:43;;;;;;;7.93;5.05;;;17.60;99.90;;;;;;5038312;28;20026;-63
2023/07/05 04:45:09;;;;;;;8.95;4.90;;;17.60;99.90;;;;;;5055564;28;20029;-64
2023/07/05 04:47:34;;;;;;;9.70;4.95;;;17.60;99.90;;;;;;5056320;28;20025;-63
2023/07/05 04:50:00;;;;;;;13.10;5.15;;;17.70;99.90;;;;;;5055592;28;20049;-75
2023/07/05 04:52:26;;;;;;;8.30;4.80;;;17.70;99.90;;;;;;5056023;28;20351;-75
2023/07/05 04:54:53;;;;;;;7.22;5.25;;;17.70;99.90;;;;;;5055743;28;20461;-74
2023/07/05 04:57:19;;;;;;;12.25;4.70;;;17.80;99.90;;;;;;5037615;28;20029;-76
2023/07/05 04:59:45;;;;;;;8.35;4.78;;;17.80;99.90;;;;;;5055765;28;20115;-76
2023/07/05 05:02:10;;;;;;;6.32;4.65;;;17.90;99.90;;;;;;5037640;28;20061;-76
2023/07/05 05:04:37;;;;;;;8.95;4.78;;;18.00;99.90;;;;;;5055857;28;20025;-76
2023/07/05 05:07:05;;;;;;;6.55;5.25;;;18.10;99.90;;;;;;5055845;28;20033;-77
2023/07/05 05:09:30;;;;;;;11.18;4.95;;;18.20;99.90;;;;;;5037929;28;20120;-76
2023/07/05 05:11:56;;;;;;;8.85;4.95;;;18.30;99.90;;;;;;5037823;28;20112;-78
2023/07/05 05:14:22;;;;;;;9.68;4.50;;;18.30;99.90;;;;;;5055414;28;20017;-76
2023/07/05 05:16:47;;;;;;;10.73;5.25;;;18.40;99.90;;;;;;5055000;28;20389;-78
2023/07/05 05:19:13;;;;;;;13.45;5.22;;;18.50;99.90;;;;;;5055084;28;20025;-82
2023/07/05 05:21:38;;;;;;;9.95;6.03;;;18.70;99.90;;;;;;5055286;28;20031;-73
2023/07/05 05:24:04;;;;;;;15.57;5.70;;;18.80;99.90;;;;;;5055143;28;20029;-73
2023/07/05 05:26:30;;;;;;;8.50;6.15;;;18.90;99.90;;;;;;5054700;28;20037;-73
2023/07/05 05:28:55;;;;;;;13.95;5.65;;;19.00;99.90;;;;;;5054408;28;20028;-71
2023/07/05 05:31:21;;;;;;;10.00;5.07;;;19.20;99.90;;;;;;5054976;28;20055;-70
2023/07/05 05:33:47;;;;;;;10.88;5.25;;;19.30;99.90;;;;;;5037041;28;20053;-71
2023/07/05 05:36:13;;;;;;;10.27;5.30;;;19.40;99.90;;;;;;5055051;28;20033;-71
2023/07/05 05:38:39;;;;;;;7.40;4.80;;;19.50;99.90;;;;;;5055176;28;20338;-71
2023/07/05 05:41:10;;;;;;;15.65;5.10;;;19.70;99.90;;;;;;5054878;28;20051;-71
2023/07/05 05:43:38;;;;;;;8.00;5.72;;;19.80;99.90;;;;;;5054713;28;20447;-70
2023/07/05 05:46:04;;;;;;;9.50;5.22;;;20.10;99.90;;;;;;5053711;28;20113;-71
2023/07/05 05:48:30;;;;;;;9.50;5.03;;;20.30;99.90;;;;;;5054840;28;20112;-71
2023/07/05 05:50:55;;;;;;;15.15;5.28;;;20.50;99.90;;;;;;5057372;28;20045;-70
2023/07/05 05:53:21;;;;;;;8.63;5.05;;;20.60;99.90;;;;;;5074519;28;20476;-70
2023/07/05 05:55:46;;;;;;;10.30;5.35;;;20.80;99.90;;;;;;5074617;28;20028;-70
2023/07/05 05:58:12;;;;;;;6.95;5.07;;;20.90;99.90;;;;;;5074178;28;20020;-71
2023/07/05 06:00:38;;;;;;;9.88;5.40;;;21.10;99.90;;;;;;5074450;28;20475;-70
2023/07/05 06:03:04;;;;;;;9.68;5.28;;;21.20;99.90;;;;;;5073090;28;20035;-71
2023/07/05 06:05:33;;;;;;;9.23;5.60;;;21.30;99.90;;;;;;5074333;28;20111;-70
2023/07/05 06:07:58;;;;;;;9.90;5.77;;;21.40;99.90;;;;;;5074306;28;20509;-70
2023/07/05 06:10:24;;;;;;;11.05;5.38;;;21.50;99.90;;;;;;5073983;28;20255;-70
2023/07/05 06:12:50;;;;;;;11.15;5.60;;;21.70;99.90;;;;;;5072931;28;20020;-70
2023/07/05 06:15:15;;;;;;;9.82;4.82;;;21.80;99.90;;;;;;5074464;28;20063;-70
2023/07/05 06:17:41;;;;;;;10.60;4.85;;;22.00;99.90;;;;;;5074457;28;20067;-70
2023/07/05 06:20:10;;;;;;;8.73;5.18;;;22.20;99.90;;;;;;5073876;28;20079;-70
2023/07/05 06:22:36;;;;;;;8.48;5.30;;;22.30;99.90;;;;;;5073002;28;20460;-70
2023/07/05 06:25:02;;;;;;;12.80;5.70;;;22.40;99.90;;;;;;5072895;28;20040;-70
2023/07/05 06:27:28;;;;;;;9.63;5.40;;;22.50;99.90;;;;;;5073970;28;20055;-70
2023/07/05 06:29:53;;;;;;;8.40;4.63;;;22.60;99.90;;;;;;5072674;28;20460;-70
2023/07/05 06:32:19;;;;;;;11.68;4.88;;;22.70;99.90;;;;;;5074206;28;20031;-71
2023/07/05 06:34:45;;;;;;;8.07;5.13;;;22.80;99.90;;;;;;5074441;28;20025;-70
2023/07/05 06:37:11;;;;;;;7.20;5.07;;;22.80;99.90;;;;;;5073929;28;20476;-70
2023/07/05 06:39:37;;;;;;;8.48;4.85;;;22.80;99.90;;;;;;5074247;28;20103;-70
2023/07/05 06:42:03;;;;;;;9.75;4.78;;;22.80;99.90;;;;;;5073505;28;20092;-70
2023/07/05 06:44:29;;;;;;;7.43;4.32;;;22.70;99.90;;;;;;5073827;28;20032;-70
2023/07/05 06:46:55;;;;;;;8.57;4.97;;;22.70;99.90;;;;;;5073563;28;20032;-71
2023/07/05 06:49:20;;;;;;;6.20;4.30;;;22.60;99.90;;;;;;5072449;28;20024;-70
2023/07/05 06:51:46;;;;;;;8.20;4.55;;;22.60;99.90;;;;;;5054693;28;20076;-70
2023/07/05 06:54:12;;;;;;;9.25;4.78;;;22.50;99.90;;;;;;5035832;28;20029;-71
2023/07/05 06:56:38;;;;;;;9.98;4.75;;;22.50;99.90;;;;;;5052856;28;20036;-70
2023/07/05 06:59:03;;;;;;;6.70;4.93;;;22.50;99.90;;;;;;5035903;28;20029;-70
2023/07/05 07:01:29;;;;;;;8.60;4.18;;;22.40;99.90;;;;;;5053330;28;20029;-70
2023/07/05 07:03:54;;;;;;;9.27;4.25;;;22.30;99.90;;;;;;5053641;28;20366;-71
2023/07/05 07:06:20;;;;;;;7.50;4.57;;;22.20;99.90;;;;;;5035592;28;20579;-70
2023/07/05 07:08:46;;;;;;;8.55;4.50;;;22.10;99.90;;;;;;5053768;28;20021;-70
2023/07/05 07:11:12;;;;;;;7.13;4.55;;;22.00;99.90;;;;;;5035564;28;20021;-70
2023/07/05 07:13:38;;;;;;;9.32;4.65;;;21.90;99.90;;;;;;5053412;28;20021;-70
2023/07/05 07:16:13;;;;;;;8.10;4.10;;;21.90;99.90;;;;;;5052974;28;20445;-70
2023/07/05 07:18:41;;;;;;;8.20;4.78;;;21.90;99.90;;;;;;5053673;28;20419;-70
2023/07/05 07:21:08;;;;;;;7.80;4.10;;;21.90;99.90;;;;;;5035635;28;20079;-70
2023/07/05 07:23:34;;;;;;;7.20;5.03;;;21.90;99.90;;;;;;5053410;28;20052;-70
2023/07/05 07:26:16;;;;;;;6.57;4.20;;;22.00;99.90;;;;;;5053513;28;20065;-70
2023/07/05 07:28:45;;;;;;;7.95;4.15;;;22.10;99.90;;;;;;5053348;28;20021;-70
2023/07/05 07:31:31;;;;;;;5.00;4.13;;;22.30;99.90;;;;;;5053007;28;20029;-70
2023/07/05 07:33:57;;;;;;;10.98;4.32;;;22.40;99.90;;;;;;5053197;28;20451;-71
2023/07/05 07:36:25;;;;;;;10.73;4.35;;;22.60;99.90;;;;;;5035027;28;20029;-70
2023/07/05 07:38:52;;;;;;;10.15;4.65;;;22.70;99.90;;;;;;5053064;28;20382;-70
2023/07/05 07:41:21;;;;;;;11.85;5.10;;;22.90;99.90;;;;;;5035423;28;20060;-70
2023/07/05 07:43:53;;;;;;;9.15;4.65;;;23.00;99.90;;;;;;5035133;28;20392;-70
2023/07/05 07:46:22;;;;;;;9.77;4.03;;;23.10;99.90;;;;;;5035145;28;20123;-70
2023/07/05 07:48:50;;;;;;;10.13;5.05;;;23.10;99.90;;;;;;5035262;28;20021;-70
2023/07/05 07:51:17;;;;;;;9.65;4.40;;;23.00;99.90;;;;;;5061601;28;20106;-70
2023/07/05 07:53:43;;;;;;;6.10;4.40;;;23.00;99.90;;;;;;5071770;28;20025;-70
2023/07/05 07:56:13;;;;;;;14.35;5.03;;;23.10;99.90;;;;;;5073576;28;20033;-71
2023/07/05 07:58:40;;;;;;;7.53;4.60;;;23.20;99.90;;;;;;5073216;28;20025;-70
2023/07/05 08:01:16;;;;;;;9.48;4.85;;;23.30;99.90;;;;;;5071819;28;20025;-70
2023/07/05 08:03:42;;;;;;;8.23;4.55;;;23.40;99.90;;;;;;5072363;28;20032;-70
2023/07/05 08:06:08;;;;;;;6.85;4.95;;;23.50;99.90;;;;;;5071903;28;20044;-73
2023/07/05 08:08:35;;;;;;;7.13;4.70;;;23.60;99.90;;;;;;5075083;28;20032;-73
2023/07/05 08:11:02;;;;;;;6.55;4.90;;;23.70;99.90;;;;;;5076584;28;20127;-72
2023/07/05 08:13:29;;;;;;;8.07;4.93;;;23.90;99.90;;;;;;5076180;28;20031;-70
2023/07/05 08:15:55;;;;;;;9.82;4.68;;;24.00;99.90;;;;;;5075502;28;20051;-72
2023/07/05 08:18:21;;;;;;;11.43;5.65;;;24.20;99.90;;;;;;5076414;28;20444;-72
2023/07/05 08:20:47;;;;;;;7.95;5.05;;;24.40;99.90;;;;;;5075102;28;20021;-73
2023/07/05 08:23:13;;;;;;;8.35;4.97;;;24.40;99.90;;;;;;5076086;28;20029;-73
2023/07/05 08:25:39;;;;;;;11.82;5.63;;;24.50;99.90;;;;;;5074947;28;20039;-73
2023/07/05 08:28:05;;;;;;;9.27;4.93;;;24.60;99.90;;;;;;5075019;28;20035;-73
2023/07/05 08:30:33;;;;;;;7.53;4.20;;;24.80;99.90;;;;;;5076256;28;20094;-73
2023/07/05 08:32:59;;;;;;;9.85;5.15;;;25.40;99.90;;;;;;5076211;28;20032;-73
2023/07/05 08:35:24;;;;;;;10.52;4.50;;;26.00;99.90;;;;;;5076185;28;20021;-73
2023/07/05 08:37:50;;;;;;;10.77;5.00;;;26.30;99.60;;;;;;5076096;28;20024;-73
2023/07/05 08:40:17;;;;;;;6.78;4.38;;;26.90;98.40;;;;;;5076071;28;20024;-74
2023/07/05 08:42:57;;;;;;;11.38;4.53;;;27.60;96.60;;;;;;5076084;28;20099;-73
2023/07/05 08:45:32;;;;;;;6.82;4.60;;;28.20;94.90;;;;;;5075756;28;20028;-74
2023/07/05 08:48:02;;;;;;;13.70;4.22;;;29.10;93.50;;;;;;5076535;28;20021;-73
2023/07/05 08:50:29;;;;;;;6.78;4.43;;;29.80;91.90;;;;;;5074559;28;20131;-74
2023/07/05 08:53:05;;;;;;;4.07;3.55;;;30.10;88.90;;;;;;5075703;28;20372;-74
2023/07/05 08:55:58;;;;;;;7.70;4.50;;;30.30;85.30;;;;;;5075829;28;20089;-74
2023/07/05 08:58:28;;;;;;;7.68;4.00;;;30.50;83.30;;;;;;5075982;28;20020;-74
2023/07/05 09:01:03;;;;;;;5.00;4.00;;;31.00;80.30;;;;;;5075641;28;20070;-74
2023/07/05 09:03:30;;;;;;;9.68;4.25;;;31.30;78.80;;;;;;5074259;28;20024;-74
2023/07/05 09:06:11;;;;;;;4.55;4.00;;;31.80;76.70;;;;;;5075554;28;20040;-74
2023/07/05 09:08:55;;;;;;;4.35;3.95;;;32.30;74.80;;;;;;5074359;28;20142;-74
2023/07/05 09:11:35;;;;;;;6.03;4.03;;;32.10;71.10;;;;;;5075610;28;20041;-74
2023/07/05 09:14:28;;;;;;;5.13;3.97;;;32.20;71.60;;;;;;5075699;28;20494;-73
2023/07/05 09:17:03;;;;;;;5.70;3.45;;;32.20;69.50;;;;;;5075093;28;20435;-75
2023/07/05 09:19:44;;;;;;;7.05;4.00;;;32.00;70.20;;;;;;5074817;28;20025;-75
2023/07/05 09:22:17;;;;;;;5.13;4.30;;;32.30;70.60;;;;;;5074028;28;20461;-76
2023/07/05 09:24:45;;;;;;;6.53;4.20;;;32.80;68.00;;;;;;5090308;28;20020;-75
2023/07/05 09:27:25;;;;;;;6.57;4.35;;;33.20;66.70;;;;;;5090465;28;20029;-75
2023/07/05 09:30:00;;;;;;;6.78;3.78;;;33.20;65.90;;;;;;5075179;28;20067;-76
2023/07/05 09:32:41;;;;;;;8.52;3.72;;;32.80;65.10;;;;;;5075165;28;20083;-75
2023/07/05 09:35:21;;;;;;;5.82;3.80;;;32.30;66.30;;;;;;5075358;28;20046;-76
2023/07/05 09:38:08;;;;;;;4.45;3.03;;;32.00;66.60;;;;;;5074580;28;20025;-76
2023/07/05 09:41:00;;;;;;;5.82;3.75;;;32.10;67.10;;;;;;5073679;28;20029;-76
2023/07/05 09:43:29;;;;;;;11.93;3.55;;;32.20;67.50;;;;;;5073676;28;20032;-75
2023/07/05 09:45:55;;;;;;;5.45;3.83;;;33.20;66.60;;;;;;5074484;28;20037;-76
2023/07/05 09:48:21;;;;;;;7.47;3.67;;;34.00;63.90;;;;;;5075047;28;20419;-76
2023/07/05 09:50:49;;;;;;;5.25;3.88;;;34.20;63.00;;;;;;5073311;28;20047;-76
2023/07/05 09:53:38;;;;;;;6.88;3.45;;;34.40;61.50;;;;;;5074564;28;20345;-76
2023/07/05 09:56:10;;;;;;;7.65;4.03;;;33.90;61.10;;;;;;5074535;28;20032;-78
2023/07/05 09:58:38;;;;;;;6.18;3.47;;;33.40;60.90;;;;;;5074595;28;20082;-77
2023/07/05 10:01:06;;;;;;;7.75;3.42;;;33.00;62.30;;;;;;5074495;28;20035;-77
2023/07/05 10:04:03;;;;;;;4.70;3.63;;;32.90;62.50;;;;;;5074430;28;20029;-77
2023/07/05 10:06:29;;;;;;;4.50;2.72;;;33.30;61.70;;;;;;5072190;28;20033;-77
2023/07/05 10:09:00;;;;;;;6.07;3.33;;;32.90;58.70;;;;;;5074640;28;20465;-76
2023/07/05 10:11:35;;;;;;;3.70;2.72;;;32.80;56.90;;;;;;5074247;28;20024;-76
2023/07/05 10:14:12;;;;;;;3.92;2.70;;;32.90;57.30;;;;;;5074341;28;20023;-74
2023/07/05 10:17:02;;;;;;;6.32;3.33;;;32.80;57.50;;;;;;5074176;28;20033;-75
2023/07/05 10:19:32;;;;;;;4.63;3.75;;;32.50;56.80;;;;;;5074331;28;20028;-75
2023/07/05 10:22:12;;;;;;;4.20;2.70;;;32.60;58.30;;;;;;5074277;28;20021;-74
2023/07/05 10:24:49;;;;;;;3.20;2.78;;;33.00;57.50;;;;;;5072886;28;20024;-74
2023/07/05 10:27:21;;;;;;;3.65;2.97;;;32.90;56.10;;;;;;5074051;28;20063;-74
2023/07/05 10:30:00;;;;;;;3.20;2.90;;;32.90;56.80;;;;;;5072739;28;20039;-75
2023/07/05 10:32:26;;;;;;;4.05;3.13;;;32.60;56.70;;;;;;5073767;28;20035;-75
2023/07/05 10:34:52;;;;;;;6.45;2.63;;;32.40;57.30;;;;;;5073908;28;20028;-74
2023/07/05 10:37:33;;;;;;;7.97;3.30;;;32.30;57.80;;;;;;5073944;28;20479;-74
2023/07/05 10:40:04;;;;;;;4.25;3.13;;;32.20;57.00;;;;;;5072621;28;20423;-75
2023/07/05 10:42:30;;;;;;;5.00;3.00;;;31.50;57.70;;;;;;5073699;28;20457;-75
2023/07/05 10:44:56;;;;;;;3.88;3.10;;;31.10;58.50;;;;;;5072631;28;20109;-74
2023/07/05 10:47:23;;;;;;;5.60;3.30;;;31.10;59.30;;;;;;5073529;28;20101;-75
2023/07/05 10:49:52;;;;;;;3.92;3.08;;;31.00;58.80;;;;;;5069417;28;20053;-75
2023/07/05 10:52:19;;;;;;;5.53;3.40;;;30.80;59.30;;;;;;5053740;28;20048;-74
2023/07/05 10:55:13;;;;;;;5.38;2.72;;;30.70;59.80;;;;;;5035851;28;20025;-75
2023/07/05 10:57:43;;;;;;;4.28;2.97;;;31.10;60.30;;;;;;5036410;28;20048;-75
2023/07/05 11:00:12;;;;;;;3.90;2.85;;;31.80;57.10;;;;;;5036044;28;20396;-75
2023/07/05 11:02:44;;;;;;;6.47;3.28;;;32.20;58.80;;;;;;5035495;28;20119;-75
2023/07/05 11:05:19;;;;;;;2.95;2.50;;;33.00;56.00;;;;;;5053459;28;20028;-76
2023/07/05 11:07:48;;;;;;;3.10;2.75;;;33.90;53.70;;;;;;5053784;28;20060;-75
2023/07/05 11:10:14;;;;;;;5.55;2.88;;;34.20;52.60;;;;;;5035669;28;20078;-75
2023/07/05 11:12:41;;;;;;;5.80;2.80;;;34.10;53.80;;;;;;5035580;28;20032;-75
2023/07/05 11:15:15;;;;;;;4.63;2.83;;;33.60;52.60;;;;;;5053552;28;20468;-75
2023/07/05 11:17:42;;;;;;;3.42;2.65;;;32.40;53.40;;;;;;5035915;28;20036;-75
2023/07/05 11:20:30;;;;;;;3.63;2.75;;;31.30;54.30;;;;;;5053478;28;20028;-75
2023/07/05 11:22:55;;;;;;;4.97;2.95;;;30.80;55.80;;;;;;5053454;28;20064;-75
2023/07/05 11:25:53;;;;;;;4.32;2.95;;;30.60;56.80;;;;;;5053486;28;20087;-75
2023/07/05 11:28:39;;;;;;;4.88;2.70;;;30.20;57.50;;;;;;5035953;28;20036;-75
2023/07/05 11:31:06;;;;;;;7.50;2.85;;;29.80;57.70;;;;;;5053798;28;20032;-75
2023/07/05 11:33:32;;;;;;;9.30;2.72;;;29.60;58.50;;;;;;5053117;28;20541;-75
2023/07/05 11:36:05;;;;;;;3.97;2.60;;;29.30;58.90;;;;;;5035480;28;20465;-75
2023/07/05 11:38:37;;;;;;;4.95;3.10;;;29.10;60.20;;;;;;5053514;28;20017;-75
2023/07/05 11:41:27;;;;;;;4.80;2.80;;;28.50;68.10;;;;;;5053279;28;20025;-75
2023/07/05 11:44:02;;;;;;;6.88;3.67;;;28.00;70.80;;;;;;5044997;28;20057;-74
2023/07/05 11:46:34;;;;;;;3.70;2.90;;;27.50;72.50;;;;;;5057057;28;20029;-74
2023/07/05 11:49:23;;;;;;;4.95;2.58;;;26.80;69.10;;;;;;5057292;28;20036;-74
2023/07/05 11:51:54;;;;;;;3.58;2.60;;;26.20;69.00;;;;;;5074471;28;20452;-74
2023/07/05 11:54:23;;;;;;;6.00;2.30;;;25.50;71.10;;;;;;5075799;28;20078;-72
2023/07/05 11:56:52;;;;;;;3.60;2.40;;;25.00;74.50;;;;;;5076332;28;20381;-72
2023/07/05 11:59:21;;;;;;;2.10;1.75;;;24.60;74.20;;;;;;5076868;28;20028;-72
2023/07/05 12:01:48;;;;;;;6.97;2.40;;;24.20;75.10;;;;;;5075657;28;20024;-72
2023/07/05 12:04:21;;;;;;;5.45;2.40;;;23.90;78.40;;;;;;5076804;28;20025;-72
2023/07/05 12:06:48;;;;;;;9.65;2.50;;;23.50;85.90;;;;;;5076657;28;20380;-70
2023/07/05 12:09:38;;;;;;;10.68;2.42;;;22.80;92.00;;;;;;5077102;28;20031;-69
2023/07/05 12:12:05;;;;;;;8.73;3.03;;;22.00;94.10;;;;;;5076790;28;20028;-65
2023/07/05 12:14:32;;;;;;;10.70;2.55;;;20.70;99.90;;;;;;5075273;28;20033;-66
2023/07/05 12:16:58;;;;;;;9.68;2.90;;;19.60;99.90;;;;;;5076516;28;20020;-71
2023/07/05 12:19:30;;;;;;;14.95;2.60;;;18.70;99.90;;;;;;5076391;28;20039;-71
2023/07/05 12:22:04;;;;;;;9.38;2.95;;;17.80;99.90;;;;;;5075154;28;20036;-69
2023/07/05 12:24:47;;;;;;;9.70;3.33;;;17.50;99.90;;;;;;5075137;28;20120;-69
2023/07/05 12:27:32;;;;;;;16.52;3.30;;;17.00;99.90;;;;;;5076244;28;20043;-72
2023/07/05 12:30:00;;;;;;;15.80;3.13;;;16.70;99.90;;;;;;5076460;28;20036;-69
2023/07/05 12:32:28;;;;;;;11.50;3.73;;;16.60;99.90;;;;;;5074965;28;20028;-69
2023/07/05 12:35:11;;;;;;;13.85;4.60;;;16.60;99.90;;;;;;5076213;28;20259;-69
2023/07/05 12:37:37;;;;;;;13.48;5.38;;;16.80;99.90;;;;;;5076567;28;20039;-69
2023/07/05 12:40:20;;;;;;;9.25;3.28;;;16.90;99.90;;;;;;5074867;28;20468;-70
2023/07/05 12:42:56;;;;;;;4.93;2.42;;;17.00;99.90;;;;;;5075982;28;20486;-70
2023/07/05 12:45:34;;;;;;;3.92;2.10;;;17.10;99.90;;;;;;5076233;28;20028;-71
2023/07/05 12:48:18;;;;;;;13.00;4.47;;;17.20;99.90;;;;;;5076043;28;20040;-71
2023/07/05 12:50:44;;;;;;;7.70;3.47;;;17.60;99.90;;;;;;5065285;28;20118;-71
2023/07/05 12:53:20;;;;;;;10.93;4.13;;;18.20;99.90;;;;;;5055937;28;20476;-69
2023/07/05 12:55:56;;;;;;;11.02;2.90;;;19.50;99.90;;;;;;5037703;28;20036;-69
2023/07/05 12:58:24;;;;;;;5.00;1.70;;;20.30;99.90;;;;;;5038010;28;20055;-69